Time;durP1;ratioP1;P1;durP2;ratioP2;P2;SDS_P1;SDS_P2;PMS_P1;PMS_P2;Temp;Humidity;BMP_temperature;BMP_pressure;BME280_temperature;BME280_humidity;BME280_pressure;Samples;Min_cycle;Max_cycle;Signal;HPM_P1;HPM_P2
2022/07/14 00:00:14;;;;;;;1.43;0.90;;;21.50;94.20;;;;;;6123088;23;20504;-77
2022/07/14 00:02:43;;;;;;;1.50;0.90;;;21.50;94.80;;;;;;6120642;23;20441;-77
2022/07/14 00:05:10;;;;;;;1.50;0.93;;;21.50;95.00;;;;;;6123454;23;20428;-78
2022/07/14 00:07:37;;;;;;;1.43;0.90;;;21.50;95.40;;;;;;6123395;23;20524;-77
2022/07/14 00:10:05;;;;;;;1.50;0.90;;;21.40;94.70;;;;;;6122054;23;20717;-78
2022/07/14 00:12:32;;;;;;;1.47;0.90;;;21.40;96.50;;;;;;6121100;23;20476;-76
2022/07/14 00:14:59;;;;;;;1.50;0.90;;;21.40;96.80;;;;;;6120962;23;20449;-77
2022/07/14 00:17:25;;;;;;;1.47;0.90;;;21.30;97.50;;;;;;6121164;23;20429;-75
2022/07/14 00:19:54;;;;;;;1.47;0.90;;;21.30;98.10;;;;;;6120693;23;20838;-75
2022/07/14 00:22:20;;;;;;;1.47;0.90;;;21.30;98.20;;;;;;6120665;23;20421;-75
2022/07/14 00:24:48;;;;;;;1.47;0.90;;;21.20;98.20;;;;;;6120808;23;20426;-76
2022/07/14 00:27:15;;;;;;;1.43;0.90;;;21.20;98.20;;;;;;6120907;23;20532;-75
2022/07/14 00:29:42;;;;;;;1.47;0.90;;;21.20;98.20;;;;;;6120305;23;20513;-76
2022/07/14 00:32:09;;;;;;;1.50;0.90;;;21.20;98.10;;;;;;6119805;23;20481;-74
2022/07/14 00:34:36;;;;;;;1.47;0.90;;;21.10;98.20;;;;;;6120504;23;20476;-75
2022/07/14 00:37:04;;;;;;;1.47;0.90;;;21.10;98.20;;;;;;6121593;23;20448;-76
2022/07/14 00:39:54;;;;;;;1.47;0.90;;;21.10;98.20;;;;;;6120240;23;20924;-76
2022/07/14 00:42:34;;;;;;;1.47;0.90;;;21.10;98.20;;;;;;6120276;23;20488;-75
2022/07/14 00:45:03;;;;;;;1.50;0.90;;;21.00;98.20;;;;;;6121006;23;20426;-75
2022/07/14 00:47:30;;;;;;;1.47;0.90;;;21.00;98.20;;;;;;6121502;23;20477;-74
2022/07/14 00:49:57;;;;;;;1.47;0.90;;;21.00;98.20;;;;;;6120360;23;20441;-75
2022/07/14 00:52:28;;;;;;;1.43;0.90;;;21.00;98.20;;;;;;6120259;23;20449;-76
2022/07/14 00:54:56;;;;;;;1.47;0.90;;;21.00;98.20;;;;;;6121190;23;20414;-76
2022/07/14 00:57:23;;;;;;;1.43;0.90;;;20.90;98.20;;;;;;6121090;23;20722;-75
2022/07/14 00:59:51;;;;;;;1.50;0.90;;;20.90;98.20;;;;;;6120701;23;21187;-75
2022/07/14 01:02:19;;;;;;;1.47;0.90;;;20.90;98.20;;;;;;6120698;23;20433;-75
2022/07/14 01:04:47;;;;;;;1.50;0.90;;;20.80;98.20;;;;;;6120355;23;20422;-75
2022/07/14 01:07:15;;;;;;;1.50;0.90;;;20.80;98.20;;;;;;6121306;23;20446;-76
2022/07/14 01:09:44;;;;;;;1.43;0.90;;;20.70;98.20;;;;;;6120229;23;20425;-75
2022/07/14 01:12:12;;;;;;;1.43;0.90;;;20.70;98.20;;;;;;6120224;23;20746;-76
2022/07/14 01:14:40;;;;;;;1.47;0.90;;;20.60;98.20;;;;;;6119841;23;20425;-76
2022/07/14 01:17:09;;;;;;;1.50;0.90;;;20.50;98.20;;;;;;6120659;23;20513;-76
2022/07/14 01:19:36;;;;;;;1.47;0.90;;;20.50;98.20;;;;;;6120303;23;20426;-75
2022/07/14 01:22:05;;;;;;;1.50;0.90;;;20.50;98.20;;;;;;6119494;23;20504;-76
2022/07/14 01:24:33;;;;;;;1.47;1.00;;;20.50;98.20;;;;;;6129423;23;20496;-76
2022/07/14 01:27:00;;;;;;;1.47;0.90;;;20.50;98.20;;;;;;6129987;23;20524;-77
2022/07/14 01:29:27;;;;;;;1.50;0.90;;;20.60;98.20;;;;;;6115737;23;20509;-77
2022/07/14 01:31:54;;;;;;;1.40;0.90;;;20.60;98.20;;;;;;6117872;23;20833;-76
2022/07/14 01:34:21;;;;;;;1.50;0.90;;;20.50;98.20;;;;;;6121928;23;20808;-77
2022/07/14 01:36:49;;;;;;;1.47;0.90;;;20.50;98.20;;;;;;6122511;23;20422;-77
2022/07/14 01:39:18;;;;;;;1.43;0.90;;;20.50;98.20;;;;;;6124358;23;20461;-77
2022/07/14 01:41:46;;;;;;;1.50;0.90;;;20.50;98.20;;;;;;6122097;23;20450;-77
2022/07/14 01:44:13;;;;;;;1.43;0.90;;;20.50;98.20;;;;;;6121817;23;20472;-76
2022/07/14 01:46:40;;;;;;;1.47;0.90;;;20.40;98.20;;;;;;6120371;23;20421;-76
2022/07/14 01:49:07;;;;;;;1.47;0.90;;;20.40;98.20;;;;;;6121069;23;20472;-76
2022/07/14 01:51:35;;;;;;;1.50;0.90;;;20.40;98.20;;;;;;6119631;23;20442;-77
2022/07/14 01:54:04;;;;;;;1.57;1.20;;;20.40;98.20;;;;;;6121866;23;20776;-76
2022/07/14 01:56:33;;;;;;;1.47;0.90;;;20.40;98.20;;;;;;6120492;23;20924;-76
2022/07/14 01:59:01;;;;;;;1.43;0.90;;;20.40;98.20;;;;;;6120782;23;20444;-76
2022/07/14 02:01:40;;;;;;;1.50;0.90;;;20.30;98.20;;;;;;6120573;23;20484;-75
2022/07/14 02:04:09;;;;;;;1.43;0.90;;;20.30;98.20;;;;;;6121587;23;20951;-75
2022/07/14 02:06:37;;;;;;;1.50;0.90;;;20.30;98.20;;;;;;6121565;23;20426;-76
2022/07/14 02:09:04;;;;;;;1.47;0.90;;;20.30;98.20;;;;;;6121685;23;20528;-76
2022/07/14 02:14:17;;;;;;;1.43;0.90;;;20.30;98.20;;;;;;6120320;23;20457;-76
2022/07/14 02:16:44;;;;;;;1.47;0.90;;;20.30;98.20;;;;;;6122741;23;20814;-76
2022/07/14 02:19:11;;;;;;;1.50;0.90;;;20.20;98.20;;;;;;6123776;23;20417;-77
2022/07/14 02:21:40;;;;;;;1.50;1.00;;;20.20;98.20;;;;;;6123399;23;20438;-77
2022/07/14 02:24:08;;;;;;;1.47;0.90;;;20.20;98.20;;;;;;6124608;23;20426;-77
2022/07/14 02:26:36;;;;;;;1.47;0.90;;;20.10;98.20;;;;;;6123866;23;20429;-76
2022/07/14 02:29:04;;;;;;;1.43;0.90;;;20.10;98.20;;;;;;6122634;23;20449;-77
2022/07/14 02:31:31;;;;;;;1.47;0.90;;;20.10;98.20;;;;;;6121789;23;20971;-76
2022/07/14 02:33:58;;;;;;;1.50;1.00;;;20.10;98.20;;;;;;6122781;23;20421;-77
2022/07/14 02:36:25;;;;;;;1.40;0.90;;;20.10;98.20;;;;;;6132608;23;20436;-77
2022/07/14 02:38:53;;;;;;;1.47;0.90;;;20.10;98.20;;;;;;6123327;23;20495;-78
2022/07/14 02:41:20;;;;;;;1.43;0.90;;;20.10;98.20;;;;;;6122651;23;20469;-76
2022/07/14 02:43:49;;;;;;;1.47;0.90;;;20.10;98.20;;;;;;6123165;23;20457;-76
2022/07/14 02:46:16;;;;;;;1.47;0.90;;;20.10;98.20;;;;;;6124091;23;20449;-75
2022/07/14 02:48:43;;;;;;;1.50;0.90;;;20.10;98.20;;;;;;6123601;23;20441;-76
2022/07/14 02:51:11;;;;;;;1.50;0.97;;;20.10;98.20;;;;;;6122853;23;20943;-76
2022/07/14 02:53:38;;;;;;;1.50;0.90;;;20.00;98.20;;;;;;6132052;23;21045;-76
2022/07/14 02:56:06;;;;;;;1.50;0.90;;;20.00;98.20;;;;;;6123320;23;20425;-76
2022/07/14 02:58:34;;;;;;;1.47;0.90;;;19.90;98.20;;;;;;6123885;23;20715;-76
2022/07/14 03:01:05;;;;;;;1.50;0.90;;;19.90;98.20;;;;;;6122699;23;20490;-77
2022/07/14 03:03:33;;;;;;;1.50;0.90;;;19.90;98.20;;;;;;6124483;23;20418;-77
2022/07/14 03:06:00;;;;;;;1.50;0.90;;;19.80;98.20;;;;;;6124712;23;20505;-77
2022/07/14 03:08:27;;;;;;;1.50;0.90;;;19.80;98.20;;;;;;6123087;23;20525;-77
2022/07/14 03:10:54;;;;;;;1.50;0.90;;;19.70;98.20;;;;;;6121839;23;20449;-77
2022/07/14 03:13:21;;;;;;;1.50;0.90;;;19.70;98.20;;;;;;6124221;23;20509;-78
2022/07/14 03:15:47;;;;;;;1.47;0.90;;;19.70;98.20;;;;;;6125226;23;20432;-79
2022/07/14 03:18:16;;;;;;;1.50;0.90;;;19.70;98.20;;;;;;6124537;23;20513;-77
2022/07/14 03:20:43;;;;;;;1.50;1.00;;;19.70;98.20;;;;;;6123612;23;20442;-78
2022/07/14 03:23:10;;;;;;;1.50;1.00;;;19.70;98.20;;;;;;6124060;23;20425;-78
2022/07/14 03:25:37;;;;;;;1.50;0.90;;;19.70;98.20;;;;;;6123315;23;20425;-77
2022/07/14 03:28:05;;;;;;;1.50;0.90;;;19.70;98.20;;;;;;6123715;23;20532;-77
2022/07/14 03:30:32;;;;;;;1.43;0.90;;;19.70;98.20;;;;;;6121760;23;20819;-77
2022/07/14 03:33:00;;;;;;;1.50;0.90;;;19.70;98.20;;;;;;6123562;23;20421;-77
2022/07/14 03:35:28;;;;;;;1.50;0.90;;;19.60;98.20;;;;;;6124789;23;20422;-76
2022/07/14 03:37:55;;;;;;;1.50;0.90;;;19.60;98.20;;;;;;6125687;23;20845;-77
2022/07/14 03:40:22;;;;;;;1.50;0.90;;;19.60;98.20;;;;;;6123151;23;20448;-77
2022/07/14 03:42:49;;;;;;;1.47;0.90;;;19.50;98.20;;;;;;6122846;23;20426;-78
2022/07/14 03:45:16;;;;;;;1.47;0.90;;;19.50;98.20;;;;;;6123248;23;20421;-77
2022/07/14 03:47:43;;;;;;;1.50;0.90;;;19.50;98.20;;;;;;6122573;23;20696;-78
2022/07/14 03:50:13;;;;;;;1.50;1.00;;;19.50;98.20;;;;;;6123281;23;20972;-79
2022/07/14 03:52:42;;;;;;;1.43;0.90;;;19.50;98.20;;;;;;6123395;23;20432;-77
2022/07/14 03:55:09;;;;;;;1.43;0.90;;;19.50;98.20;;;;;;6123657;23;20512;-78
2022/07/14 03:57:36;;;;;;;1.50;0.90;;;19.50;98.20;;;;;;6122331;23;20912;-77
2022/07/14 04:00:05;;;;;;;1.50;0.90;;;19.40;98.20;;;;;;6122764;23;20901;-77
2022/07/14 04:02:32;;;;;;;1.47;0.90;;;19.40;98.20;;;;;;6124421;23;20436;-77
2022/07/14 04:04:59;;;;;;;1.47;0.90;;;19.40;98.20;;;;;;6125264;23;20550;-77
2022/07/14 04:07:26;;;;;;;1.43;0.90;;;19.40;98.20;;;;;;6124744;23;20450;-77
2022/07/14 04:09:54;;;;;;;1.47;1.00;;;19.40;98.20;;;;;;6122477;23;20468;-76
2022/07/14 04:12:21;;;;;;;1.40;0.90;;;19.40;98.20;;;;;;6123337;23;20424;-77
2022/07/14 04:14:48;;;;;;;1.50;0.90;;;19.40;98.20;;;;;;6124165;23;20754;-77
2022/07/14 04:17:15;;;;;;;1.43;1.00;;;19.40;98.20;;;;;;6125504;23;20425;-77
2022/07/14 04:19:42;;;;;;;1.47;0.90;;;19.40;98.20;;;;;;6123787;23;20919;-77
2022/07/14 04:22:10;;;;;;;1.43;0.90;;;19.40;98.20;;;;;;6123831;23;20937;-78
2022/07/14 04:24:38;;;;;;;1.43;0.90;;;19.40;98.20;;;;;;6124101;23;20508;-77
2022/07/14 04:27:06;;;;;;;1.50;0.90;;;19.40;98.20;;;;;;6122975;23;20489;-77
2022/07/14 04:29:33;;;;;;;1.47;0.90;;;19.40;98.20;;;;;;6123222;23;20464;-76
2022/07/14 04:32:00;;;;;;;1.50;0.90;;;19.30;98.20;;;;;;6121575;23;20444;-76
2022/07/14 04:34:27;;;;;;;1.50;0.90;;;19.30;98.20;;;;;;6123223;23;20848;-77
2022/07/14 04:36:54;;;;;;;1.50;0.90;;;19.30;98.20;;;;;;6123073;23;20875;-77
2022/07/14 04:39:21;;;;;;;1.50;1.00;;;19.30;98.20;;;;;;6122057;23;20966;-76
2022/07/14 04:41:48;;;;;;;1.47;0.90;;;19.30;98.20;;;;;;6130145;23;20445;-77
2022/07/14 04:44:17;;;;;;;1.47;1.00;;;19.30;98.20;;;;;;6122943;23;20425;-77
2022/07/14 04:46:44;;;;;;;1.50;0.90;;;19.30;98.20;;;;;;6123942;23;20516;-77
2022/07/14 04:52:05;;;;;;;1.50;0.90;;;19.30;98.20;;;;;;6131290;23;20457;-77
2022/07/14 04:54:34;;;;;;;1.43;0.90;;;19.30;98.20;;;;;;6124122;23;20406;-77
2022/07/14 04:57:03;;;;;;;1.47;0.90;;;19.30;98.20;;;;;;6123758;23;20428;-78
2022/07/14 04:59:33;;;;;;;1.40;0.90;;;19.30;98.20;;;;;;6123812;23;20488;-78
2022/07/14 05:02:01;;;;;;;1.50;0.90;;;19.40;98.20;;;;;;6124477;23;20505;-79
2022/07/14 05:04:28;;;;;;;1.47;0.90;;;19.40;98.20;;;;;;6127068;23;20429;-80
2022/07/14 05:06:56;;;;;;;1.47;0.90;;;19.40;98.20;;;;;;6120612;23;20493;-78
2022/07/14 05:09:25;;;;;;;1.43;0.90;;;19.40;98.20;;;;;;6126185;23;20449;-78
2022/07/14 05:11:53;;;;;;;1.43;0.90;;;19.40;98.20;;;;;;6126467;23;20442;-78
2022/07/14 05:14:20;;;;;;;1.47;0.90;;;19.30;98.20;;;;;;6123972;23;20796;-78
2022/07/14 05:16:49;;;;;;;1.47;0.90;;;19.30;98.20;;;;;;6124211;23;21002;-78
2022/07/14 05:19:17;;;;;;;1.47;0.90;;;19.30;98.20;;;;;;6124057;23;20417;-78
2022/07/14 05:21:45;;;;;;;1.47;0.90;;;19.30;98.20;;;;;;6128043;23;20445;-79
2022/07/14 05:24:12;;;;;;;1.50;0.90;;;19.30;98.20;;;;;;6128426;23;20502;-79
2022/07/14 05:26:40;;;;;;;1.50;0.90;;;19.30;98.20;;;;;;6127599;23;20501;-79
2022/07/14 05:29:07;;;;;;;1.43;0.90;;;19.30;98.20;;;;;;6128731;23;20441;-78
2022/07/14 05:31:35;;;;;;;1.50;0.90;;;19.40;98.20;;;;;;6128597;23;20469;-79
2022/07/14 05:34:03;;;;;;;1.50;0.90;;;19.50;98.20;;;;;;6132523;23;20432;-80
2022/07/14 05:36:30;;;;;;;1.47;0.90;;;19.80;98.20;;;;;;6133041;23;20490;-80
2022/07/14 05:38:57;;;;;;;1.50;0.90;;;20.00;98.20;;;;;;6139474;23;20418;-78
2022/07/14 05:41:24;;;;;;;1.47;0.90;;;20.30;98.20;;;;;;6132866;23;20482;-79
2022/07/14 05:43:51;;;;;;;1.47;0.90;;;20.50;98.20;;;;;;6138494;23;20430;-77
2022/07/14 05:46:19;;;;;;;1.47;0.90;;;20.50;98.10;;;;;;6129604;23;20430;-79
2022/07/14 05:48:46;;;;;;;1.50;0.90;;;20.50;98.20;;;;;;6127899;23;20442;-79
2022/07/14 05:51:17;;;;;;;1.50;0.90;;;20.50;98.10;;;;;;6127728;23;20547;-79
2022/07/14 05:53:45;;;;;;;1.50;1.00;;;20.50;98.00;;;;;;6128466;23;20422;-80
2022/07/14 05:56:13;;;;;;;1.47;0.90;;;20.50;98.20;;;;;;6128185;23;20432;-79
2022/07/14 05:58:41;;;;;;;1.47;0.90;;;20.50;97.90;;;;;;6125966;23;20421;-82
2022/07/14 06:01:09;;;;;;;1.47;0.90;;;20.50;97.80;;;;;;6126198;23;20463;-78
2022/07/14 06:03:36;;;;;;;1.50;0.90;;;20.60;97.80;;;;;;6126459;23;20420;-79
2022/07/14 06:06:04;;;;;;;1.43;0.90;;;20.60;97.90;;;;;;6126297;23;20429;-78
2022/07/14 06:08:34;;;;;;;1.50;0.90;;;20.70;97.90;;;;;;6127082;23;20452;-79
2022/07/14 06:11:02;;;;;;;1.50;0.90;;;20.80;97.30;;;;;;6135119;23;20582;-78
2022/07/14 06:13:32;;;;;;;1.50;0.90;;;20.80;97.10;;;;;;6126759;23;20797;-79
2022/07/14 06:15:59;;;;;;;1.47;0.90;;;20.80;96.90;;;;;;6135129;23;20452;-79
2022/07/14 06:18:27;;;;;;;1.50;0.90;;;20.80;97.00;;;;;;6126242;23;20418;-79
2022/07/14 06:20:54;;;;;;;1.50;0.90;;;20.80;96.70;;;;;;6124300;23;20449;-79
2022/07/14 06:23:21;;;;;;;1.47;0.90;;;20.90;97.00;;;;;;6124214;23;20481;-78
2022/07/14 06:25:50;;;;;;;1.50;1.00;;;20.90;96.50;;;;;;6125728;23;20426;-78
2022/07/14 06:28:17;;;;;;;1.47;0.90;;;21.00;96.40;;;;;;6125059;23;20425;-78
2022/07/14 06:30:44;;;;;;;1.43;0.90;;;21.00;96.30;;;;;;6125238;23;20473;-78
2022/07/14 06:33:12;;;;;;;1.47;0.90;;;21.00;96.30;;;;;;6124291;23;20475;-79
2022/07/14 06:35:40;;;;;;;1.43;0.90;;;21.00;96.20;;;;;;6126051;23;20453;-79
2022/07/14 06:38:07;;;;;;;1.50;0.90;;;21.10;96.10;;;;;;6124602;23;20440;-79
2022/07/14 06:40:34;;;;;;;1.43;0.90;;;21.10;95.80;;;;;;6135603;23;20442;-80
2022/07/14 06:43:03;;;;;;;1.50;0.90;;;21.10;96.10;;;;;;6128973;23;20766;-79
2022/07/14 06:45:30;;;;;;;1.47;0.90;;;21.10;96.20;;;;;;6127608;23;20446;-78
2022/07/14 06:47:57;;;;;;;1.50;0.90;;;21.10;95.90;;;;;;6125687;23;20801;-78
2022/07/14 06:50:24;;;;;;;1.43;0.90;;;21.20;96.00;;;;;;6125212;23;20454;-79
2022/07/14 06:52:51;;;;;;;1.43;0.90;;;21.40;95.80;;;;;;6127202;23;20426;-80
2022/07/14 06:55:18;;;;;;;1.47;0.90;;;21.60;95.10;;;;;;6126385;23;20492;-78
2022/07/14 06:57:45;;;;;;;1.50;0.90;;;21.80;94.70;;;;;;6134263;23;20433;-80
2022/07/14 07:00:16;;;;;;;1.50;0.90;;;21.80;93.80;;;;;;6123799;23;20496;-78
2022/07/14 07:02:43;;;;;;;1.50;0.90;;;21.80;94.20;;;;;;6124624;23;20775;-79
2022/07/14 07:07:58;;;;;;;1.50;0.90;;;22.00;93.00;;;;;;6125519;23;20418;-78
2022/07/14 07:10:25;;;;;;;1.50;0.90;;;22.10;92.60;;;;;;6127529;23;20460;-78
2022/07/14 07:12:52;;;;;;;1.50;0.90;;;22.10;93.30;;;;;;6124548;23;20497;-77
2022/07/14 07:15:21;;;;;;;1.50;0.87;;;22.40;93.60;;;;;;6128737;23;20425;-78
2022/07/14 07:17:53;;;;;;;1.47;0.90;;;22.70;91.40;;;;;;6129097;23;20546;-79
2022/07/14 07:20:20;;;;;;;1.50;0.90;;;22.90;91.00;;;;;;6135779;23;20449;-79
2022/07/14 07:22:49;;;;;;;1.47;0.90;;;22.90;90.70;;;;;;6127617;23;20954;-78
2022/07/14 07:25:19;;;;;;;1.50;0.90;;;23.00;91.20;;;;;;6135439;23;20433;-78
2022/07/14 07:27:46;;;;;;;1.47;0.90;;;23.10;89.30;;;;;;6126250;23;20426;-78
2022/07/14 07:30:13;;;;;;;1.47;0.80;;;23.10;89.50;;;;;;6126285;23;20780;-78
2022/07/14 07:32:42;;;;;;;1.50;0.97;;;23.10;89.20;;;;;;6126356;23;20739;-79
2022/07/14 07:35:10;;;;;;;1.50;0.90;;;23.00;89.80;;;;;;6135342;23;20448;-78
2022/07/14 07:37:37;;;;;;;1.43;0.90;;;22.90;90.10;;;;;;6127323;23;20512;-78
2022/07/14 07:40:05;;;;;;;1.47;0.90;;;22.90;90.20;;;;;;6134993;23;20496;-80
2022/07/14 07:42:34;;;;;;;1.50;0.90;;;22.90;90.10;;;;;;6129287;23;20445;-78
2022/07/14 07:45:04;;;;;;;1.50;0.90;;;22.90;89.70;;;;;;6127422;23;20505;-80
2022/07/14 07:47:31;;;;;;;1.50;0.90;;;23.00;89.90;;;;;;6126386;23;20476;-79
2022/07/14 07:50:00;;;;;;;1.50;0.90;;;23.00;89.80;;;;;;6127239;23;20449;-79
2022/07/14 07:52:27;;;;;;;1.47;0.90;;;23.10;88.80;;;;;;6124233;23;20421;-78
2022/07/14 07:54:54;;;;;;;1.47;0.90;;;23.20;88.50;;;;;;6126329;23;20461;-80
2022/07/14 07:57:22;;;;;;;1.43;0.90;;;23.30;88.20;;;;;;6124451;23;20476;-80
2022/07/14 07:59:50;;;;;;;1.47;0.90;;;23.50;88.40;;;;;;6127987;23;20413;-79
2022/07/14 08:02:17;;;;;;;1.50;0.90;;;23.70;87.50;;;;;;6127007;23;20480;-80
2022/07/14 08:04:44;;;;;;;1.50;0.90;;;23.90;87.00;;;;;;6127266;23;20421;-78
2022/07/14 08:07:12;;;;;;;1.43;0.90;;;23.90;86.10;;;;;;6127964;23;20815;-78
2022/07/14 08:09:40;;;;;;;1.50;0.90;;;24.10;86.40;;;;;;6124273;23;20445;-78
2022/07/14 08:12:07;;;;;;;1.50;0.90;;;24.40;85.00;;;;;;6123627;23;20422;-79
2022/07/14 08:14:50;;;;;;;1.50;0.90;;;24.70;80.00;;;;;;6126165;23;20454;-80
2022/07/14 08:17:17;;;;;;;1.43;0.80;;;24.80;79.80;;;;;;6123116;23;21156;-77
2022/07/14 08:19:44;;;;;;;1.47;0.87;;;24.90;80.50;;;;;;6123080;23;20418;-77
2022/07/14 08:22:14;;;;;;;1.50;0.90;;;25.20;80.30;;;;;;6125536;23;20425;-79
2022/07/14 08:24:41;;;;;;;1.50;0.90;;;25.30;79.00;;;;;;6126534;23;20500;-79
2022/07/14 08:27:08;;;;;;;1.50;0.87;;;25.50;78.70;;;;;;6124328;23;20449;-79
2022/07/14 08:29:35;;;;;;;1.50;0.87;;;25.30;78.90;;;;;;6129106;23;20536;-77
2022/07/14 08:32:02;;;;;;;1.47;0.90;;;25.10;78.70;;;;;;6123953;23;20928;-77
2022/07/14 08:34:29;;;;;;;3.00;1.73;;;24.90;78.10;;;;;;6124029;23;20422;-78
2022/07/14 08:36:58;;;;;;;1.80;1.50;;;24.80;79.60;;;;;;6123455;23;20422;-79
2022/07/14 08:39:27;;;;;;;1.47;0.90;;;24.70;79.30;;;;;;6130978;23;20452;-80
2022/07/14 08:41:56;;;;;;;1.47;0.80;;;24.70;78.90;;;;;;6123831;23;20473;-77
2022/07/14 08:44:25;;;;;;;1.43;0.87;;;24.70;78.70;;;;;;6124488;23;20938;-78
2022/07/14 08:46:52;;;;;;;1.47;0.80;;;24.90;79.00;;;;;;6124460;23;20422;-76
2022/07/14 08:49:19;;;;;;;1.47;0.90;;;25.10;77.70;;;;;;6121807;23;20485;-74
2022/07/14 08:51:47;;;;;;;1.43;0.90;;;25.40;76.60;;;;;;6121098;23;20446;-75
2022/07/14 08:54:14;;;;;;;1.47;0.80;;;25.50;75.40;;;;;;6122139;23;20566;-75
2022/07/14 08:56:43;;;;;;;1.47;0.80;;;25.60;76.30;;;;;;6121390;23;20424;-75
2022/07/14 08:59:10;;;;;;;1.50;0.80;;;25.80;76.70;;;;;;6122632;23;20449;-75
2022/07/14 09:01:38;;;;;;;1.50;0.80;;;25.80;74.50;;;;;;6120307;23;20456;-75
2022/07/14 09:04:05;;;;;;;1.50;0.80;;;25.80;75.30;;;;;;6130200;23;20476;-74
2022/07/14 09:06:53;;;;;;;1.47;0.80;;;25.80;74.90;;;;;;6122879;23;20457;-76
2022/07/14 09:09:22;;;;;;;1.50;0.90;;;25.90;74.20;;;;;;6122398;23;20485;-75
2022/07/14 09:11:55;;;;;;;1.47;0.83;;;26.00;69.90;;;;;;6120463;23;20468;-75
2022/07/14 09:14:23;;;;;;;1.47;0.80;;;26.10;71.90;;;;;;6122717;23;20809;-76
2022/07/14 09:16:50;;;;;;;1.50;0.80;;;26.20;72.70;;;;;;6122103;23;20422;-76
2022/07/14 09:19:19;;;;;;;1.50;0.90;;;26.40;73.20;;;;;;6122554;23;20425;-76
2022/07/14 09:21:54;;;;;;;1.47;0.80;;;26.50;73.20;;;;;;6121748;23;20776;-77
2022/07/14 09:24:22;;;;;;;1.50;0.80;;;26.70;72.20;;;;;;6122606;23;20939;-77
2022/07/14 09:26:52;;;;;;;1.47;0.90;;;26.70;69.00;;;;;;6121494;23;20634;-75
2022/07/14 09:29:23;;;;;;;1.43;0.80;;;26.80;67.80;;;;;;6122013;23;20798;-75
2022/07/14 09:31:50;;;;;;;1.50;0.80;;;26.90;68.80;;;;;;6123084;23;20441;-74
2022/07/14 09:34:31;;;;;;;1.50;0.80;;;26.90;66.30;;;;;;6123621;23;20428;-75
2022/07/14 09:37:13;;;;;;;1.50;0.80;;;26.90;67.60;;;;;;6122287;23;20421;-75
2022/07/14 09:39:54;;;;;;;1.50;0.87;;;27.20;66.40;;;;;;6121749;23;20417;-75
2022/07/14 09:42:57;;;;;;;1.43;0.80;;;27.40;64.40;;;;;;6120529;23;20493;-75
2022/07/14 09:45:27;;;;;;;1.50;1.00;;;27.50;66.30;;;;;;6121784;23;20484;-75
2022/07/14 09:48:06;;;;;;;1.43;0.87;;;27.70;64.10;;;;;;6121750;23;20415;-75
2022/07/14 09:50:39;;;;;;;1.47;0.83;;;27.60;65.60;;;;;;6121488;23;20453;-75
2022/07/14 09:53:19;;;;;;;1.50;0.80;;;27.70;64.20;;;;;;6120786;23;20421;-75
2022/07/14 09:56:01;;;;;;;1.50;0.80;;;27.60;62.70;;;;;;6121368;23;20993;-75
2022/07/14 09:58:31;;;;;;;1.40;0.80;;;27.50;63.70;;;;;;6122031;23;20481;-76
2022/07/14 10:01:02;;;;;;;1.43;0.80;;;27.30;65.10;;;;;;6118782;23;20520;-75
2022/07/14 10:03:32;;;;;;;1.40;0.80;;;27.40;63.90;;;;;;6122073;23;20405;-75
2022/07/14 10:06:01;;;;;;;1.43;0.80;;;27.50;63.70;;;;;;6131671;23;20417;-77
2022/07/14 10:08:30;;;;;;;1.47;0.80;;;27.60;63.60;;;;;;6121586;23;20425;-77
2022/07/14 10:10:59;;;;;;;1.43;0.80;;;27.60;63.40;;;;;;6119447;23;20508;-77
2022/07/14 10:13:27;;;;;;;1.40;0.80;;;27.70;64.50;;;;;;6122379;23;20428;-76
2022/07/14 10:15:56;;;;;;;1.40;0.80;;;27.60;65.50;;;;;;6122458;23;20483;-76
2022/07/14 10:18:25;;;;;;;1.40;0.83;;;27.80;64.50;;;;;;6121723;23;20426;-76
2022/07/14 10:20:54;;;;;;;1.40;0.80;;;27.80;65.50;;;;;;6121606;23;20444;-77
2022/07/14 10:23:24;;;;;;;1.50;0.80;;;28.00;64.10;;;;;;6129528;23;20425;-77
2022/07/14 10:25:53;;;;;;;1.40;0.80;;;28.10;63.50;;;;;;6123905;23;20437;-76
2022/07/14 10:28:22;;;;;;;1.43;0.80;;;28.10;64.80;;;;;;6123694;23;20824;-76
2022/07/14 10:31:01;;;;;;;1.40;0.80;;;28.30;64.70;;;;;;6120718;23;20548;-75
2022/07/14 10:33:41;;;;;;;1.50;0.90;;;28.50;63.20;;;;;;6121422;23;20409;-75
2022/07/14 10:36:17;;;;;;;1.40;0.80;;;28.70;61.20;;;;;;6122008;23;20977;-75
2022/07/14 10:39:12;;;;;;;1.47;0.80;;;28.90;59.70;;;;;;6136245;23;20756;-76
2022/07/14 10:41:56;;;;;;;1.43;0.80;;;29.10;58.20;;;;;;6118424;23;20441;-75
2022/07/14 10:44:26;;;;;;;1.47;0.80;;;29.00;59.40;;;;;;6123174;23;20950;-76
2022/07/14 10:47:09;;;;;;;1.43;0.80;;;29.20;59.60;;;;;;6122698;23;20425;-76
2022/07/14 10:50:01;;;;;;;1.47;0.80;;;29.30;58.90;;;;;;6132893;23;20417;-76
2022/07/14 10:52:29;;;;;;;1.47;0.80;;;29.40;59.20;;;;;;6132662;23;20460;-77
2022/07/14 10:55:13;;;;;;;1.43;0.80;;;29.50;59.40;;;;;;6123692;23;20421;-76
2022/07/14 10:57:40;;;;;;;1.47;0.80;;;29.60;59.90;;;;;;6132990;23;20991;-75
2022/07/14 11:00:28;;;;;;;1.47;0.80;;;29.70;57.90;;;;;;6121864;23;20568;-75
2022/07/14 11:03:20;;;;;;;1.43;0.80;;;29.80;56.30;;;;;;6122160;23;20784;-76
2022/07/14 11:06:16;;;;;;;1.47;0.80;;;29.90;55.70;;;;;;6123607;23;20432;-75
2022/07/14 11:08:45;;;;;;;1.47;0.80;;;29.90;56.60;;;;;;6098303;23;20421;-76
2022/07/14 11:11:20;;;;;;;1.47;0.80;;;29.80;57.10;;;;;;6132460;23;20437;-75
2022/07/14 11:14:07;;;;;;;1.47;0.80;;;29.90;56.70;;;;;;6124350;23;20404;-76
2022/07/14 11:16:56;;;;;;;1.47;0.80;;;30.00;56.80;;;;;;6123087;23;20449;-77
2022/07/14 11:19:31;;;;;;;1.43;0.80;;;30.30;56.60;;;;;;6114926;23;20460;-75
2022/07/14 11:22:19;;;;;;;1.47;0.80;;;30.50;57.00;;;;;;6133488;23;20472;-75
2022/07/14 11:24:49;;;;;;;1.43;0.80;;;30.50;56.20;;;;;;6123995;23;20932;-77
2022/07/14 11:27:37;;;;;;;1.43;0.90;;;30.30;54.80;;;;;;6127048;23;20436;-76
2022/07/14 11:30:27;;;;;;;1.43;0.80;;;30.20;55.10;;;;;;6123998;23;20448;-78
2022/07/14 11:33:06;;;;;;;1.47;0.80;;;30.30;52.80;;;;;;6124259;23;20431;-77
2022/07/14 11:38:33;;;;;;;1.40;0.80;;;30.60;54.00;;;;;;6124928;23;20404;-77
2022/07/14 11:41:02;;;;;;;1.47;0.80;;;30.80;54.10;;;;;;6133367;23;20443;-75
2022/07/14 11:43:44;;;;;;;1.40;0.80;;;30.80;54.00;;;;;;6124259;23;20425;-77
2022/07/14 11:46:12;;;;;;;1.43;0.90;;;30.60;54.50;;;;;;6125690;23;20441;-76
2022/07/14 11:48:41;;;;;;;1.40;0.80;;;30.40;55.20;;;;;;6123879;23;21061;-77
2022/07/14 11:51:11;;;;;;;1.40;0.80;;;30.30;54.40;;;;;;6140442;23;20947;-76
2022/07/14 11:53:40;;;;;;;1.40;0.80;;;30.40;54.90;;;;;;6125199;23;20449;-78
2022/07/14 11:56:09;;;;;;;1.40;0.80;;;30.40;55.10;;;;;;6133381;23;20444;-77
2022/07/14 11:58:39;;;;;;;1.43;0.80;;;30.40;55.20;;;;;;6125481;23;20512;-76
2022/07/14 12:01:08;;;;;;;1.40;0.80;;;30.60;56.50;;;;;;6123822;23;21034;-77
2022/07/14 12:03:36;;;;;;;1.50;1.10;;;30.60;54.70;;;;;;6127603;23;20432;-76
2022/07/14 12:06:04;;;;;;;1.43;0.80;;;30.60;55.60;;;;;;6126082;23;20604;-76
2022/07/14 12:08:35;;;;;;;1.40;0.80;;;30.60;54.60;;;;;;6137262;23;20488;-76
2022/07/14 12:11:05;;;;;;;1.40;0.90;;;30.60;56.60;;;;;;6134019;23;20452;-75
2022/07/14 12:13:48;;;;;;;1.40;0.80;;;30.80;56.60;;;;;;6135553;23;20472;-77
2022/07/14 12:16:18;;;;;;;1.40;0.80;;;30.90;54.40;;;;;;6139817;23;20394;-75
2022/07/14 12:18:47;;;;;;;1.40;0.80;;;30.90;54.50;;;;;;6126483;23;20760;-76
2022/07/14 12:21:18;;;;;;;1.43;0.80;;;30.90;55.20;;;;;;6126181;23;20433;-75
2022/07/14 12:23:57;;;;;;;1.43;0.80;;;31.00;55.80;;;;;;6135757;23;20811;-76
2022/07/14 12:26:26;;;;;;;1.40;0.80;;;31.20;54.50;;;;;;6127998;23;20409;-79
2022/07/14 12:29:09;;;;;;;1.40;0.80;;;31.10;54.70;;;;;;6128580;23;20457;-75
2022/07/14 12:31:40;;;;;;;1.43;0.90;;;31.10;54.90;;;;;;6123552;23;20499;-75
2022/07/14 12:34:08;;;;;;;1.43;0.90;;;31.20;55.40;;;;;;6132533;23;20410;-75
2022/07/14 12:36:36;;;;;;;1.40;0.80;;;31.20;55.10;;;;;;6121074;23;20457;-77
2022/07/14 12:39:07;;;;;;;1.43;0.80;;;31.10;54.70;;;;;;6122279;23;20421;-78
2022/07/14 12:41:35;;;;;;;1.40;0.80;;;31.20;54.60;;;;;;6124730;23;20959;-77
2022/07/14 12:44:06;;;;;;;1.40;0.80;;;31.30;54.40;;;;;;6124872;23;20643;-77
2022/07/14 12:46:33;;;;;;;1.50;0.90;;;31.30;54.90;;;;;;6121374;23;20769;-76
2022/07/14 12:49:03;;;;;;;1.40;0.80;;;31.30;55.30;;;;;;6120324;23;20981;-77
2022/07/14 12:51:36;;;;;;;1.40;0.80;;;31.20;53.70;;;;;;6120450;23;20453;-77
2022/07/14 12:54:08;;;;;;;1.50;1.10;;;30.90;55.20;;;;;;6122692;23;21011;-77
2022/07/14 12:56:39;;;;;;;1.43;0.80;;;30.50;54.50;;;;;;6120468;23;20413;-76
2022/07/14 12:59:08;;;;;;;1.40;0.80;;;30.40;55.40;;;;;;6120245;23;20405;-77
2022/07/14 13:01:49;;;;;;;1.47;0.80;;;30.20;55.20;;;;;;6119762;23;20533;-74
2022/07/14 13:04:33;;;;;;;1.40;0.80;;;29.90;56.00;;;;;;6120431;23;20412;-76
2022/07/14 13:07:02;;;;;;;1.43;0.80;;;29.80;54.70;;;;;;6121168;23;20746;-77
2022/07/14 13:09:30;;;;;;;1.43;0.80;;;29.80;56.20;;;;;;6130475;23;20520;-76
2022/07/14 13:11:57;;;;;;;1.40;0.80;;;29.70;56.60;;;;;;6120613;23;20445;-76